Time;durP1;ratioP1;P1;durP2;ratioP2;P2;SDS_P1;SDS_P2;PMS_P1;PMS_P2;Temp;Humidity;BMP_temperature;BMP_pressure;BME280_temperature;BME280_humidity;BME280_pressure;Samples;Min_cycle;Max_cycle;Signal;HPM_P1;HPM_P2
2023/01/31 00:00:45;;;;;;;0.28;0.10;;;;;;;;;;4164271;28;20460;-50
2023/01/31 00:02:46;;;;;;;0.32;0.10;;;;;;;;;;4164419;28;20107;-52
2023/01/31 00:04:48;;;;;;;0.10;0.10;;;;;;;;;;4164531;28;20108;-48
2023/01/31 00:06:50;;;;;;;0.38;0.20;;;;;;;;;;4164306;28;20064;-51
2023/01/31 00:08:53;;;;;;;0.55;0.20;;;;;;;;;;4164798;28;20057;-52
2023/01/31 00:10:57;;;;;;;0.13;0.10;;;;;;;;;;4164256;28;20084;-48
2023/01/31 00:12:59;;;;;;;1.55;0.10;;;;;;;;;;4159357;28;20057;-52
2023/01/31 00:15:00;;;;;;;0.25;0.10;;;;;;;;;;4163919;28;20099;-51
2023/01/31 00:17:01;;;;;;;0.32;0.10;;;;;;;;;;4164266;28;20467;-51
2023/01/31 00:19:03;;;;;;;0.40;0.20;;;;;;;;;;4164229;28;20053;-49
2023/01/31 00:21:31;;;;;;;0.28;0.10;;;;;;;;;;4164210;28;20103;-50
2023/01/31 00:23:33;;;;;;;0.90;0.10;;;;;;;;;;4160015;28;20103;-53
2023/01/31 00:25:34;;;;;;;0.30;0.10;;;;;;;;;;4163691;28;20092;-51
2023/01/31 00:27:35;;;;;;;0.73;0.20;;;;;;;;;;4163870;28;20053;-47
2023/01/31 00:29:36;;;;;;;0.40;0.10;;;;;;;;;;4163992;28;20555;-50
2023/01/31 00:31:38;;;;;;;0.28;0.10;;;;;;;;;;4146357;28;20054;-49
2023/01/31 00:33:41;;;;;;;0.50;0.10;;;;;;;;;;4164168;28;20054;-48
2023/01/31 00:35:43;;;;;;;0.08;0.08;;;;;;;;;;4163761;28;20053;-49
2023/01/31 00:37:47;;;;;;;0.57;0.15;;;;;;;;;;4146310;28;20129;-51
2023/01/31 00:39:48;;;;;;;1.45;0.20;;;;;;;;;;4163276;28;20523;-49
2023/01/31 00:41:51;;;;;;;0.30;0.10;;;;;;;;;;4130469;28;20066;-48
2023/01/31 00:43:53;;;;;;;0.50;0.10;;;;;;;;;;4163858;28;20053;-51
2023/01/31 00:45:55;;;;;;;0.13;0.10;;;;;;;;;;4146264;28;20054;-53
2023/01/31 00:47:57;;;;;;;0.28;0.13;;;;;;;;;;4146087;28;20054;-51
2023/01/31 00:49:59;;;;;;;0.82;0.10;;;;;;;;;;4163789;28;20111;-52
2023/01/31 00:52:01;;;;;;;0.55;0.32;;;;;;;;;;4145997;28;20054;-52
2023/01/31 00:54:02;;;;;;;0.20;0.00;;;;;;;;;;4146006;28;20053;-52
2023/01/31 00:56:07;;;;;;;0.38;0.10;;;;;;;;;;4162332;28;20451;-51
2023/01/31 00:58:09;;;;;;;0.85;0.20;;;;;;;;;;4145959;28;20058;-52
2023/01/31 01:00:12;;;;;;;0.38;0.10;;;;;;;;;;4145879;28;20061;-48
2023/01/31 01:02:13;;;;;;;0.17;0.17;;;;;;;;;;4140991;28;20050;-53
2023/01/31 01:04:14;;;;;;;0.47;0.20;;;;;;;;;;4162937;28;20429;-52
2023/01/31 01:06:16;;;;;;;0.20;0.10;;;;;;;;;;4163013;28;20054;-53
2023/01/31 01:08:17;;;;;;;0.85;0.10;;;;;;;;;;4167071;28;20183;-52
2023/01/31 01:10:19;;;;;;;0.40;0.20;;;;;;;;;;4145300;28;20049;-52
2023/01/31 01:12:20;;;;;;;0.10;0.10;;;;;;;;;;4129412;28;20067;-47
2023/01/31 01:14:21;;;;;;;0.10;0.10;;;;;;;;;;4137688;28;20160;-52
2023/01/31 01:16:29;;;;;;;0.40;0.20;;;;;;;;;;4163971;28;20108;-50
2023/01/31 01:18:34;;;;;;;0.20;0.10;;;;;;;;;;4163503;28;20104;-52
2023/01/31 01:20:35;;;;;;;0.70;0.40;;;;;;;;;;4163088;28;20103;-51
2023/01/31 01:22:37;;;;;;;0.32;0.20;;;;;;;;;;4145778;28;20081;-52
2023/01/31 01:24:38;;;;;;;0.30;0.10;;;;;;;;;;4162761;28;20099;-53
2023/01/31 01:26:39;;;;;;;1.65;0.20;;;;;;;;;;4163127;28;20057;-52
2023/01/31 01:28:41;;;;;;;0.20;0.20;;;;;;;;;;4163544;28;20130;-53
2023/01/31 01:30:42;;;;;;;0.25;0.20;;;;;;;;;;4162767;28;20460;-52
2023/01/31 01:32:45;;;;;;;0.25;0.10;;;;;;;;;;4163306;28;20053;-52
2023/01/31 01:34:49;;;;;;;0.25;0.10;;;;;;;;;;4145204;28;20076;-50
2023/01/31 01:36:50;;;;;;;0.10;0.10;;;;;;;;;;4163001;28;20127;-51
2023/01/31 01:38:52;;;;;;;0.38;0.10;;;;;;;;;;4162713;28;20103;-51
2023/01/31 01:40:53;;;;;;;0.90;0.13;;;;;;;;;;4162124;28;20064;-51
2023/01/31 01:42:56;;;;;;;0.20;0.10;;;;;;;;;;4145500;28;20060;-53
2023/01/31 01:44:59;;;;;;;0.17;0.10;;;;;;;;;;4129050;28;20050;-49
2023/01/31 01:47:01;;;;;;;0.55;0.20;;;;;;;;;;4162987;28;20123;-48
2023/01/31 01:49:18;;;;;;;0.10;0.00;;;;;;;;;;4145544;28;20089;-51
2023/01/31 01:51:20;;;;;;;0.20;0.10;;;;;;;;;;4157797;28;20083;-51
2023/01/31 01:53:22;;;;;;;0.40;0.17;;;;;;;;;;4145250;28;20104;-49
2023/01/31 01:55:33;;;;;;;0.20;0.10;;;;;;;;;;4162103;28;20488;-48
2023/01/31 01:57:37;;;;;;;0.17;0.10;;;;;;;;;;4145470;28;20054;-48
2023/01/31 01:59:47;;;;;;;0.20;0.10;;;;;;;;;;4145083;28;20493;-48
2023/01/31 02:01:48;;;;;;;;;;;;;;;;;;4163030;28;20497;-50
2023/01/31 02:03:50;;;;;;;0.20;0.10;;;;;;;;;;4162764;28;19928;-48
2023/01/31 02:05:55;;;;;;;0.38;0.10;;;;;;;;;;4162610;28;20058;-48
2023/01/31 02:07:58;;;;;;;0.10;0.10;;;;;;;;;;4159171;28;20464;-49
2023/01/31 02:10:22;;;;;;;0.15;0.10;;;;;;;;;;4144282;28;20108;-52
2023/01/31 02:12:23;;;;;;;0.32;0.10;;;;;;;;;;4144911;28;20088;-50
2023/01/31 02:14:25;;;;;;;0.45;0.20;;;;;;;;;;4144912;28;20061;-49
2023/01/31 02:16:27;;;;;;;0.20;0.10;;;;;;;;;;4162362;28;20131;-48
2023/01/31 02:18:28;;;;;;;0.40;0.20;;;;;;;;;;4144942;28;20084;-49
2023/01/31 02:20:33;;;;;;;0.40;0.20;;;;;;;;;;4144655;28;20077;-51
2023/01/31 02:22:53;;;;;;;0.13;0.10;;;;;;;;;;4162311;28;20377;-48
2023/01/31 02:25:03;;;;;;;0.73;0.10;;;;;;;;;;4144139;28;20437;-49
2023/01/31 02:27:23;;;;;;;0.13;0.10;;;;;;;;;;4144833;28;20057;-48
2023/01/31 02:29:36;;;;;;;0.32;0.20;;;;;;;;;;4144907;28;20081;-46
2023/01/31 02:31:56;;;;;;;0.38;0.20;;;;;;;;;;4154906;28;20107;-49
2023/01/31 02:34:15;;;;;;;0.40;0.20;;;;;;;;;;4144537;28;20104;-48
2023/01/31 02:36:38;;;;;;;0.10;0.10;;;;;;;;;;4128450;28;20089;-47
2023/01/31 02:38:49;;;;;;;0.20;0.10;;;;;;;;;;4140986;28;20115;-48
2023/01/31 02:41:03;;;;;;;0.10;0.10;;;;;;;;;;4140032;28;20548;-49
2023/01/31 02:43:15;;;;;;;0.47;0.10;;;;;;;;;;4128657;28;20086;-48
2023/01/31 02:45:44;;;;;;;0.15;0.15;;;;;;;;;;4128497;28;20569;-49
2023/01/31 02:48:06;;;;;;;1.77;0.40;;;;;;;;;;4128457;28;20057;-52
2023/01/31 02:50:16;;;;;;;0.45;0.10;;;;;;;;;;4144671;28;20104;-47
2023/01/31 02:52:21;;;;;;;0.43;0.10;;;;;;;;;;4143735;28;20066;-53
2023/01/31 02:56:13;;;;;;;0.30;0.10;;;;;;;;;;4147088;28;20061;-48
2023/01/31 02:56:51;;;;;;;0.20;0.10;;;;;;;;;;4150492;28;20148;-51
2023/01/31 02:59:11;;;;;;;0.20;0.10;;;;;;;;;;4147829;28;20386;-49
2023/01/31 03:01:15;;;;;;;0.10;0.10;;;;;;;;;;4131655;28;20461;-51
2023/01/31 03:03:19;;;;;;;0.10;0.10;;;;;;;;;;4147966;28;20054;-49
2023/01/31 03:05:21;;;;;;;0.45;0.10;;;;;;;;;;4164275;28;20109;-51
2023/01/31 03:07:26;;;;;;;1.00;0.10;;;;;;;;;;4147747;28;20062;-52
2023/01/31 03:09:39;;;;;;;0.13;0.10;;;;;;;;;;4147893;28;20061;-51
2023/01/31 03:11:57;;;;;;;0.40;0.10;;;;;;;;;;4131896;28;20054;-51
2023/01/31 03:14:17;;;;;;;0.40;0.10;;;;;;;;;;4147988;28;20366;-53
2023/01/31 03:19:12;;;;;;;0.50;0.10;;;;;;;;;;4145106;28;20108;-50
2023/01/31 03:21:30;;;;;;;0.45;0.35;;;;;;;;;;4132923;28;20118;-53
2023/01/31 03:23:34;;;;;;;0.22;0.10;;;;;;;;;;4143775;28;20104;-53
2023/01/31 03:25:36;;;;;;;0.10;0.10;;;;;;;;;;4131565;28;20100;-51
2023/01/31 03:27:45;;;;;;;0.45;0.20;;;;;;;;;;4132104;28;20249;-50
2023/01/31 03:29:49;;;;;;;0.55;0.22;;;;;;;;;;4131900;28;20089;-47
2023/01/31 03:32:25;;;;;;;0.40;0.20;;;;;;;;;;4148309;28;20116;-49
2023/01/31 03:34:27;;;;;;;0.20;0.10;;;;;;;;;;4160530;28;20124;-48
2023/01/31 03:36:35;;;;;;;0.10;0.10;;;;;;;;;;4147812;28;20049;-49
2023/01/31 03:39:25;;;;;;;0.80;0.10;;;;;;;;;;4148022;28;20451;-48
2023/01/31 03:41:37;;;;;;;0.45;0.13;;;;;;;;;;4147698;28;20045;-48
2023/01/31 03:43:45;;;;;;;0.20;0.20;;;;;;;;;;4147724;28;20571;-52
2023/01/31 03:45:59;;;;;;;0.75;0.10;;;;;;;;;;4131757;28;20085;-52
2023/01/31 03:48:02;;;;;;;0.52;0.10;;;;;;;;;;4131341;28;20139;-47
2023/01/31 03:50:51;;;;;;;0.45;0.10;;;;;;;;;;4163580;28;20515;-49
2023/01/31 03:53:16;;;;;;;0.32;0.10;;;;;;;;;;4160728;28;20488;-51
2023/01/31 03:55:22;;;;;;;0.80;0.10;;;;;;;;;;4146966;28;20042;-47
2023/01/31 03:57:27;;;;;;;0.28;0.10;;;;;;;;;;4147920;28;20053;-47
2023/01/31 03:59:32;;;;;;;0.63;0.10;;;;;;;;;;4131340;28;20493;-48
2023/01/31 04:01:36;;;;;;;0.30;0.10;;;;;;;;;;4147427;28;20058;-51
2023/01/31 04:03:41;;;;;;;1.05;0.17;;;;;;;;;;4114518;28;20059;-48
2023/01/31 04:05:44;;;;;;;0.08;0.08;;;;;;;;;;4131299;28;20544;-51
2023/01/31 04:07:45;;;;;;;0.73;0.22;;;;;;;;;;4147278;28;20516;-50
2023/01/31 04:09:55;;;;;;;0.20;0.10;;;;;;;;;;4131580;28;20081;-48
2023/01/31 04:11:59;;;;;;;0.38;0.10;;;;;;;;;;4164394;28;20065;-49
2023/01/31 04:14:01;;;;;;;0.10;0.10;;;;;;;;;;4164494;28;20752;-52
2023/01/31 04:16:03;;;;;;;0.20;0.10;;;;;;;;;;4147271;28;20409;-52
2023/01/31 04:18:04;;;;;;;0.10;0.10;;;;;;;;;;4164623;28;20401;-51
2023/01/31 04:20:06;;;;;;;0.32;0.10;;;;;;;;;;4164710;28;20433;-50
2023/01/31 04:22:08;;;;;;;0.57;0.10;;;;;;;;;;4164723;28;20544;-50
2023/01/31 04:24:09;;;;;;;0.15;0.03;;;;;;;;;;4164181;28;20057;-47
2023/01/31 04:26:10;;;;;;;0.20;0.10;;;;;;;;;;4164380;28;20071;-48
2023/01/31 04:28:12;;;;;;;0.10;0.03;;;;;;;;;;4164813;28;20061;-47
2023/01/31 04:30:13;;;;;;;0.10;0.10;;;;;;;;;;4164521;28;20539;-52
2023/01/31 04:32:14;;;;;;;0.20;0.13;;;;;;;;;;4164417;28;20115;-51
2023/01/31 04:34:15;;;;;;;0.20;0.10;;;;;;;;;;4164530;28;20095;-49
2023/01/31 04:36:16;;;;;;;0.08;0.08;;;;;;;;;;4164694;28;20511;-52
2023/01/31 04:38:18;;;;;;;0.10;0.10;;;;;;;;;;4164583;28;20107;-48
2023/01/31 04:40:20;;;;;;;0.10;0.10;;;;;;;;;;4163846;28;20060;-53
2023/01/31 04:42:22;;;;;;;0.10;0.10;;;;;;;;;;4164598;28;20402;-51
2023/01/31 04:44:23;;;;;;;0.17;0.10;;;;;;;;;;4146457;28;20054;-50
2023/01/31 04:46:24;;;;;;;0.25;0.15;;;;;;;;;;4164413;28;20496;-51
2023/01/31 04:48:26;;;;;;;0.10;0.10;;;;;;;;;;4159638;28;20053;-52
2023/01/31 04:50:27;;;;;;;0.30;0.10;;;;;;;;;;4164233;28;21018;-51
2023/01/31 04:52:28;;;;;;;0.57;0.20;;;;;;;;;;4164351;28;20054;-49
2023/01/31 04:54:29;;;;;;;0.43;0.15;;;;;;;;;;4163800;28;20084;-53
2023/01/31 04:56:31;;;;;;;0.50;0.10;;;;;;;;;;4164381;28;20531;-49
2023/01/31 04:58:32;;;;;;;0.28;0.10;;;;;;;;;;4163885;28;20096;-49
2023/01/31 05:00:34;;;;;;;0.08;0.08;;;;;;;;;;4163838;28;20053;-50
2023/01/31 05:02:35;;;;;;;0.93;0.20;;;;;;;;;;4164011;28;20057;-48
2023/01/31 05:04:37;;;;;;;0.10;0.10;;;;;;;;;;4164248;28;20053;-53
2023/01/31 05:06:39;;;;;;;0.03;0.03;;;;;;;;;;4131694;28;20054;-52
2023/01/31 05:08:40;;;;;;;0.10;0.10;;;;;;;;;;4146561;28;20050;-50
2023/01/31 05:10:42;;;;;;;0.30;0.20;;;;;;;;;;4163328;28;20496;-48
2023/01/31 05:12:44;;;;;;;0.32;0.20;;;;;;;;;;4163985;28;20076;-49
2023/01/31 05:14:45;;;;;;;0.60;0.10;;;;;;;;;;4128985;28;20051;-48
2023/01/31 05:16:47;;;;;;;0.30;0.10;;;;;;;;;;4159454;28;20099;-52
2023/01/31 05:18:49;;;;;;;0.35;0.10;;;;;;;;;;4163691;28;20455;-49
2023/01/31 05:20:51;;;;;;;0.10;0.10;;;;;;;;;;4163670;28;20575;-51
2023/01/31 05:22:52;;;;;;;0.10;0.10;;;;;;;;;;4163836;28;20064;-53
2023/01/31 05:24:53;;;;;;;0.10;0.10;;;;;;;;;;4163068;28;20049;-53
2023/01/31 05:26:57;;;;;;;0.20;0.10;;;;;;;;;;4171114;28;20054;-47
2023/01/31 05:29:01;;;;;;;0.05;0.05;;;;;;;;;;4163719;28;20114;-48
2023/01/31 05:31:06;;;;;;;0.10;0.10;;;;;;;;;;4163479;28;20095;-47
2023/01/31 05:33:08;;;;;;;0.50;0.10;;;;;;;;;;4146364;28;20096;-53
2023/01/31 05:35:09;;;;;;;0.22;0.10;;;;;;;;;;4163104;28;20465;-50
2023/01/31 05:37:10;;;;;;;0.25;0.10;;;;;;;;;;4163779;28;20057;-50
2023/01/31 05:39:12;;;;;;;0.20;0.10;;;;;;;;;;4163038;28;20057;-51
2023/01/31 05:41:13;;;;;;;1.13;0.10;;;;;;;;;;4163369;28;20049;-53
2023/01/31 05:43:15;;;;;;;0.22;0.10;;;;;;;;;;4163246;28;20081;-52
2023/01/31 05:45:16;;;;;;;0.35;0.10;;;;;;;;;;4163508;28;20613;-51
2023/01/31 05:47:18;;;;;;;0.60;0.10;;;;;;;;;;4159100;28;20053;-53
2023/01/31 05:49:19;;;;;;;1.55;0.10;;;;;;;;;;4163386;28;20053;-48
2023/01/31 05:51:20;;;;;;;0.15;0.10;;;;;;;;;;4163919;28;20107;-49
2023/01/31 05:53:23;;;;;;;0.57;0.10;;;;;;;;;;4163135;28;20053;-53
2023/01/31 05:55:26;;;;;;;0.77;0.20;;;;;;;;;;4128889;28;20046;-53
2023/01/31 05:57:27;;;;;;;0.85;0.10;;;;;;;;;;4162649;28;20049;-52
2023/01/31 05:59:30;;;;;;;1.77;0.20;;;;;;;;;;4162997;28;20060;-51
2023/01/31 06:01:31;;;;;;;1.08;0.30;;;;;;;;;;4158858;28;20069;-50
2023/01/31 06:03:33;;;;;;;0.65;0.32;;;;;;;;;;4160915;28;20081;-51
2023/01/31 06:05:34;;;;;;;0.90;0.28;;;;;;;;;;4143727;28;20096;-51
2023/01/31 06:07:36;;;;;;;1.58;0.50;;;;;;;;;;4165372;28;20312;-51
2023/01/31 06:09:39;;;;;;;2.25;0.55;;;;;;;;;;4160295;28;20115;-52
2023/01/31 06:11:41;;;;;;;0.88;0.20;;;;;;;;;;4160304;28;20077;-52
2023/01/31 06:13:45;;;;;;;0.50;0.30;;;;;;;;;;4161040;28;20064;-52
2023/01/31 06:15:48;;;;;;;1.58;0.47;;;;;;;;;;4159499;28;20495;-53
2023/01/31 06:17:49;;;;;;;2.15;0.80;;;;;;;;;;4152034;28;20458;-55
2023/01/31 06:19:51;;;;;;;1.55;0.30;;;;;;;;;;4157292;28;20053;-55
2023/01/31 06:21:52;;;;;;;2.60;0.40;;;;;;;;;;4160592;28;20096;-55
2023/01/31 06:23:53;;;;;;;1.45;0.40;;;;;;;;;;4160300;28;20107;-55
2023/01/31 06:25:55;;;;;;;0.88;0.30;;;;;;;;;;4159296;28;20112;-53
2023/01/31 06:27:56;;;;;;;3.90;0.63;;;;;;;;;;4143232;28;20512;-57
2023/01/31 06:29:57;;;;;;;1.65;0.43;;;;;;;;;;4159067;28;20412;-56
2023/01/31 06:31:59;;;;;;;2.83;0.70;;;;;;;;;;4159939;28;20397;-57
2023/01/31 06:34:00;;;;;;;4.85;0.95;;;;;;;;;;4159918;28;20099;-55
2023/01/31 06:36:02;;;;;;;1.85;0.52;;;;;;;;;;4160178;28;20585;-55
2023/01/31 06:38:03;;;;;;;2.67;0.57;;;;;;;;;;4160280;28;20057;-54
2023/01/31 06:40:04;;;;;;;2.58;0.55;;;;;;;;;;4157766;28;20115;-55
2023/01/31 06:42:06;;;;;;;3.60;0.45;;;;;;;;;;4157098;28;20339;-49
2023/01/31 06:44:07;;;;;;;1.80;0.30;;;;;;;;;;4154024;28;20389;-49
2023/01/31 06:46:08;;;;;;;2.47;0.60;;;;;;;;;;4157509;28;20057;-48
2023/01/31 06:48:10;;;;;;;4.38;0.60;;;;;;;;;;4151903;28;20646;-53
2023/01/31 06:50:12;;;;;;;2.60;0.90;;;;;;;;;;4158261;28;20057;-54
2023/01/31 06:52:14;;;;;;;2.92;0.35;;;;;;;;;;4159393;28;20057;-51
2023/01/31 06:54:15;;;;;;;3.45;0.40;;;;;;;;;;4158016;28;20049;-51
2023/01/31 06:56:17;;;;;;;2.65;1.00;;;;;;;;;;4159005;28;20053;-49
2023/01/31 06:58:18;;;;;;;1.45;0.50;;;;;;;;;;4143385;28;20119;-51
2023/01/31 07:00:20;;;;;;;2.15;0.30;;;;;;;;;;4157766;28;20542;-59
2023/01/31 07:02:21;;;;;;;3.55;0.35;;;;;;;;;;4158424;28;20463;-54
2023/01/31 07:04:23;;;;;;;1.48;0.40;;;;;;;;;;4158257;28;20465;-47
2023/01/31 07:06:24;;;;;;;1.83;0.40;;;;;;;;;;4157131;28;20411;-50
2023/01/31 07:08:26;;;;;;;2.85;0.63;;;;;;;;;;4159050;28;20057;-51
2023/01/31 07:10:27;;;;;;;1.92;0.40;;;;;;;;;;4155197;28;20279;-50
2023/01/31 07:12:28;;;;;;;1.90;0.40;;;;;;;;;;4154390;28;20099;-50
2023/01/31 07:14:30;;;;;;;0.82;0.40;;;;;;;;;;4136873;28;20080;-57
2023/01/31 07:16:31;;;;;;;2.17;0.60;;;;;;;;;;4152984;28;20540;-46
2023/01/31 07:18:32;;;;;;;1.38;0.30;;;;;;;;;;4147972;28;21077;-49
2023/01/31 07:20:34;;;;;;;1.92;0.40;;;;;;;;;;4151222;28;20057;-53
2023/01/31 07:22:36;;;;;;;0.40;0.20;;;;;;;;;;4145727;28;20054;-52
2023/01/31 07:24:37;;;;;;;2.22;0.50;;;;;;;;;;4146475;28;20065;-54
2023/01/31 07:26:38;;;;;;;1.98;0.50;;;;;;;;;;4148418;28;20057;-50
2023/01/31 07:28:40;;;;;;;4.25;0.85;;;;;;;;;;4154505;28;20111;-49
2023/01/31 07:30:42;;;;;;;2.65;0.40;;;;;;;;;;4147118;28;20520;-47
2023/01/31 07:32:44;;;;;;;0.82;0.40;;;;;;;;;;4147515;28;20141;-56
2023/01/31 07:34:46;;;;;;;1.50;0.50;;;;;;;;;;4129521;28;20586;-52
2023/01/31 07:36:48;;;;;;;0.50;0.20;;;;;;;;;;4135496;28;20050;-49
2023/01/31 07:38:52;;;;;;;1.13;0.40;;;;;;;;;;4151191;28;20171;-58
2023/01/31 07:40:53;;;;;;;0.63;0.38;;;;;;;;;;4149752;28;20536;-54
2023/01/31 07:42:58;;;;;;;1.55;0.20;;;;;;;;;;4121019;28;20245;-54
2023/01/31 07:44:59;;;;;;;0.40;0.30;;;;;;;;;;4151739;28;20112;-52
2023/01/31 07:47:00;;;;;;;1.40;0.40;;;;;;;;;;4153702;28;20049;-52
2023/01/31 07:49:02;;;;;;;0.55;0.10;;;;;;;;;;4134504;28;20116;-52
2023/01/31 07:51:04;;;;;;;1.50;0.30;;;;;;;;;;4116963;28;20065;-46
2023/01/31 07:53:06;;;;;;;3.78;0.50;;;;;;;;;;4146785;28;20065;-54
2023/01/31 07:55:07;;;;;;;2.75;0.35;;;;;;;;;;4134712;28;20054;-49
2023/01/31 07:57:09;;;;;;;0.93;0.20;;;;;;;;;;4115184;28;20081;-47
2023/01/31 07:59:11;;;;;;;1.58;0.40;;;;;;;;;;4138678;28;20084;-51
2023/01/31 08:03:43;;;;;;;1.05;0.47;;;;;;;;;;4126364;28;20053;-46
2023/01/31 08:05:45;;;;;;;2.03;0.40;;;;;;;;;;4143154;28;20546;-51
2023/01/31 08:08:09;;;;;;;0.80;0.40;;;;;;;;;;4136813;28;20058;-51
2023/01/31 08:10:09;;;;;;;1.13;0.30;;;;;;;;;;4140426;28;20139;-50
2023/01/31 08:12:10;;;;;;;0.77;0.30;;;;;;;;;;4137878;28;20065;-49
2023/01/31 08:14:12;;;;;;;1.20;0.20;;;;;;;;;;4127300;28;20496;-48
2023/01/31 08:16:13;;;;;;;1.17;0.43;;;;;;;;;;4133634;28;20054;-48
2023/01/31 08:18:14;;;;;;;6.57;0.55;;;;;;;;;;4136042;28;20103;-51
2023/01/31 08:20:17;;;;;;;2.22;0.40;;;;;;;;;;4147289;28;20108;-54
2023/01/31 08:22:19;;;;;;;2.35;0.47;;;;;;;;;;4147500;28;21590;-46
2023/01/31 08:24:20;;;;;;;1.20;0.40;;;;;;;;;;4138014;28;20057;-46
2023/01/31 08:26:22;;;;;;;3.22;0.30;;;;;;;;;;4131650;28;20512;-46
2023/01/31 08:28:23;;;;;;;1.95;0.20;;;;;;;;;;4134880;28;20061;-47
2023/01/31 08:30:25;;;;;;;2.40;0.47;;;;;;;;;;4140311;28;20056;-46
2023/01/31 08:32:26;;;;;;;1.80;0.50;;;;;;;;;;4116477;28;20062;-46
2023/01/31 08:34:27;;;;;;;1.27;0.50;;;;;;;;;;4136921;28;20139;-45
2023/01/31 08:36:32;;;;;;;0.77;0.47;;;;;;;;;;4144959;28;21005;-46
2023/01/31 08:38:34;;;;;;;1.30;0.28;;;;;;;;;;4124999;28;20212;-45
2023/01/31 08:40:35;;;;;;;1.13;0.30;;;;;;;;;;4140363;28;20053;-45
2023/01/31 08:42:36;;;;;;;2.25;0.25;;;;;;;;;;4145809;28;20431;-48
2023/01/31 08:44:38;;;;;;;0.38;0.17;;;;;;;;;;4142905;28;20061;-47
2023/01/31 08:46:40;;;;;;;0.98;0.30;;;;;;;;;;4130568;28;20142;-45
2023/01/31 08:48:42;;;;;;;2.53;0.30;;;;;;;;;;4120911;28;20066;-45
2023/01/31 08:50:43;;;;;;;0.63;0.30;;;;;;;;;;4124503;28;20072;-45
2023/01/31 08:52:44;;;;;;;2.88;0.43;;;;;;;;;;4134327;28;20561;-46
2023/01/31 08:54:46;;;;;;;2.90;0.40;;;;;;;;;;4087530;28;21552;-48
2023/01/31 08:56:47;;;;;;;1.25;0.30;;;;;;;;;;4126149;28;20084;-46
2023/01/31 08:58:48;;;;;;;1.02;0.30;;;;;;;;;;4107531;28;20454;-46
2023/01/31 09:00:50;;;;;;;2.55;0.30;;;;;;;;;;4112704;28;20508;-47
2023/01/31 09:02:52;;;;;;;0.65;0.25;;;;;;;;;;4118739;28;20057;-49
2023/01/31 09:04:53;;;;;;;1.05;0.30;;;;;;;;;;4104166;28;20049;-47
2023/01/31 09:06:55;;;;;;;2.00;0.30;;;;;;;;;;4115660;28;20061;-46
2023/01/31 09:08:57;;;;;;;1.67;0.30;;;;;;;;;;4122186;28;20673;-47
2023/01/31 09:11:01;;;;;;;1.35;0.50;;;;;;;;;;4127830;28;20216;-48
2023/01/31 09:13:02;;;;;;;0.50;0.20;;;;;;;;;;4134786;28;20059;-49
2023/01/31 09:15:05;;;;;;;0.52;0.22;;;;;;;;;;4131824;28;20474;-48
2023/01/31 09:17:06;;;;;;;2.35;0.20;;;;;;;;;;4112402;28;20088;-46
2023/01/31 09:19:08;;;;;;;2.05;0.20;;;;;;;;;;4131744;28;20057;-47
2023/01/31 09:21:29;;;;;;;0.98;0.32;;;;;;;;;;4126906;28;20061;-48
2023/01/31 09:23:30;;;;;;;1.20;0.28;;;;;;;;;;4137204;28;20469;-48
2023/01/31 09:25:32;;;;;;;0.57;0.22;;;;;;;;;;4123614;28;20054;-49
2023/01/31 09:27:35;;;;;;;2.22;0.32;;;;;;;;;;4133449;28;20061;-48
2023/01/31 09:29:37;;;;;;;0.93;0.30;;;;;;;;;;4111574;28;20058;-47
2023/01/31 09:31:38;;;;;;;2.92;0.47;;;;;;;;;;4120775;28;20642;-48
2023/01/31 09:33:40;;;;;;;2.22;0.40;;;;;;;;;;4114846;28;20061;-50
2023/01/31 09:35:41;;;;;;;2.85;0.40;;;;;;;;;;4085321;28;20470;-47
2023/01/31 09:37:44;;;;;;;0.32;0.32;;;;;;;;;;4124488;28;20490;-52
2023/01/31 09:39:45;;;;;;;1.00;0.50;;;;;;;;;;4119727;28;20705;-50
2023/01/31 09:42:23;;;;;;;1.05;0.30;;;;;;;;;;4118265;28;20697;-51
2023/01/31 09:44:28;;;;;;;1.08;0.20;;;;;;;;;;4118166;28;20607;-51
2023/01/31 09:46:34;;;;;;;1.52;0.28;;;;;;;;;;4123467;28;20107;-46
2023/01/31 09:48:37;;;;;;;3.03;0.30;;;;;;;;;;4095181;28;20054;-49
2023/01/31 09:50:48;;;;;;;1.02;0.30;;;;;;;;;;4111954;28;20409;-47
2023/01/31 09:52:49;;;;;;;2.50;0.38;;;;;;;;;;4129449;28;20053;-48
2023/01/31 09:54:51;;;;;;;0.60;0.20;;;;;;;;;;4105211;28;20180;-46
2023/01/31 09:57:03;;;;;;;1.33;0.40;;;;;;;;;;4125383;28;20057;-47
2023/01/31 09:59:21;;;;;;;0.82;0.38;;;;;;;;;;4106053;28;20429;-50
2023/01/31 10:02:04;;;;;;;3.28;0.30;;;;;;;;;;4119577;28;21647;-53
2023/01/31 10:04:29;;;;;;;1.42;0.28;;;;;;;;;;4126678;28;20061;-50
2023/01/31 10:06:38;;;;;;;1.75;0.32;;;;;;;;;;4112502;28;20061;-46
2023/01/31 10:08:47;;;;;;;0.82;0.30;;;;;;;;;;4127279;28;20061;-51
2023/01/31 10:10:54;;;;;;;2.03;0.30;;;;;;;;;;4117545;28;20196;-50
2023/01/31 10:12:58;;;;;;;1.13;0.38;;;;;;;;;;4113112;28;20065;-49
2023/01/31 10:15:02;;;;;;;2.17;0.30;;;;;;;;;;4132922;28;20049;-49
2023/01/31 10:17:14;;;;;;;2.65;0.57;;;;;;;;;;4093565;28;20626;-46
2023/01/31 10:19:24;;;;;;;1.27;0.30;;;;;;;;;;4099879;28;20128;-47
2023/01/31 10:21:32;;;;;;;1.90;0.30;;;;;;;;;;4121275;28;20095;-47
2023/01/31 10:23:39;;;;;;;0.20;0.20;;;;;;;;;;4110180;28;20062;-49
2023/01/31 10:25:48;;;;;;;0.43;0.20;;;;;;;;;;4119050;28;20059;-47
2023/01/31 10:28:02;;;;;;;0.98;0.30;;;;;;;;;;4115647;28;20777;-50
2023/01/31 10:30:05;;;;;;;0.90;0.35;;;;;;;;;;4114347;28;20081;-48
2023/01/31 10:32:25;;;;;;;0.95;0.20;;;;;;;;;;4094526;28;20061;-48
2023/01/31 10:34:29;;;;;;;0.75;0.20;;;;;;;;;;4116692;28;20062;-48
2023/01/31 10:36:35;;;;;;;2.70;0.43;;;;;;;;;;4100228;28;20108;-51
2023/01/31 10:38:42;;;;;;;0.90;0.40;;;;;;;;;;4111130;28;20061;-46
2023/01/31 10:40:47;;;;;;;0.93;0.20;;;;;;;;;;4129110;28;20795;-47
2023/01/31 10:42:52;;;;;;;0.50;0.20;;;;;;;;;;4132139;28;20142;-50
2023/01/31 10:44:56;;;;;;;1.27;0.50;;;;;;;;;;4117963;28;21112;-51
2023/01/31 10:46:58;;;;;;;2.53;0.40;;;;;;;;;;4129334;28;20076;-51
2023/01/31 10:48:59;;;;;;;0.50;0.30;;;;;;;;;;4136266;28;20116;-52
2023/01/31 10:51:25;;;;;;;0.22;0.20;;;;;;;;;;4126764;28;20064;-50
2023/01/31 10:53:38;;;;;;;0.93;0.25;;;;;;;;;;4134008;28;20505;-50
2023/01/31 10:56:18;;;;;;;1.23;0.28;;;;;;;;;;4131627;28;20428;-53
2023/01/31 10:58:21;;;;;;;;;;;;;;;;;;4135756;28;20057;-52
2023/01/31 11:00:26;;;;;;;0.98;0.40;;;;;;;;;;4127732;28;19929;-51
2023/01/31 11:02:28;;;;;;;0.73;0.28;;;;;;;;;;4125353;28;20064;-46
2023/01/31 11:04:31;;;;;;;2.60;0.32;;;;;;;;;;4108345;28;20051;-52
2023/01/31 11:06:32;;;;;;;1.13;0.40;;;;;;;;;;4130855;28;20551;-48
2023/01/31 11:08:36;;;;;;;1.75;0.20;;;;;;;;;;4128981;28;21058;-49
2023/01/31 11:10:49;;;;;;;2.38;0.60;;;;;;;;;;4105880;28;20054;-50
2023/01/31 11:12:58;;;;;;;1.85;0.25;;;;;;;;;;4127731;28;20065;-50
2023/01/31 11:15:06;;;;;;;2.63;0.45;;;;;;;;;;4113145;28;20507;-47
2023/01/31 11:17:19;;;;;;;0.70;0.28;;;;;;;;;;4098849;28;20493;-49
2023/01/31 11:19:28;;;;;;;1.45;0.30;;;;;;;;;;4133495;28;20053;-49
2023/01/31 11:21:31;;;;;;;2.28;0.30;;;;;;;;;;4140171;28;20651;-52
2023/01/31 11:23:34;;;;;;;0.65;0.20;;;;;;;;;;4136480;28;20457;-49
2023/01/31 11:25:35;;;;;;;1.95;0.28;;;;;;;;;;4107247;28;20143;-48
2023/01/31 11:27:41;;;;;;;0.63;0.30;;;;;;;;;;4126932;28;20511;-48
2023/01/31 11:29:49;;;;;;;1.67;0.15;;;;;;;;;;4131450;28;20061;-50
2023/01/31 11:31:51;;;;;;;0.85;0.40;;;;;;;;;;4127630;28;20058;-49
2023/01/31 11:33:56;;;;;;;0.73;0.17;;;;;;;;;;4107597;28;20198;-47
2023/01/31 11:35:58;;;;;;;0.47;0.20;;;;;;;;;;4132345;28;20470;-48
2023/01/31 11:38:20;;;;;;;1.25;0.25;;;;;;;;;;4140669;28;20068;-51
2023/01/31 11:40:35;;;;;;;0.93;0.38;;;;;;;;;;4113709;28;20501;-49
2023/01/31 11:42:50;;;;;;;1.85;0.30;;;;;;;;;;4129617;28;20570;-47
2023/01/31 11:45:00;;;;;;;0.63;0.30;;;;;;;;;;4134377;28;20053;-48
2023/01/31 11:47:04;;;;;;;0.77;0.20;;;;;;;;;;4119508;28;20054;-50
2023/01/31 11:49:15;;;;;;;3.05;0.32;;;;;;;;;;4101146;28;20104;-47
2023/01/31 11:51:26;;;;;;;0.70;0.35;;;;;;;;;;4117899;28;20057;-49
2023/01/31 11:53:36;;;;;;;2.22;0.35;;;;;;;;;;4110233;28;20127;-51
2023/01/31 11:55:38;;;;;;;0.80;0.20;;;;;;;;;;4120516;28;22225;-51
2023/01/31 11:57:40;;;;;;;3.05;0.38;;;;;;;;;;4115455;28;20057;-51
2023/01/31 11:59:42;;;;;;;0.50;0.32;;;;;;;;;;4111496;28;20120;-47
2023/01/31 12:01:47;;;;;;;0.90;0.20;;;;;;;;;;4083582;28;20419;-52
2023/01/31 12:03:52;;;;;;;1.00;0.20;;;;;;;;;;4105969;28;20061;-49
2023/01/31 12:06:08;;;;;;;1.67;0.20;;;;;;;;;;4110352;28;20050;-48
2023/01/31 12:08:35;;;;;;;0.50;0.20;;;;;;;;;;4125815;28;20362;-48
2023/01/31 12:10:41;;;;;;;0.95;0.30;;;;;;;;;;4135860;28;22289;-52
2023/01/31 12:12:43;;;;;;;1.00;0.32;;;;;;;;;;4125591;28;20131;-48
2023/01/31 12:14:46;;;;;;;1.35;0.43;;;;;;;;;;4129275;28;20745;-48
2023/01/31 12:16:48;;;;;;;3.70;0.47;;;;;;;;;;4132444;28;20069;-47
2023/01/31 12:18:59;;;;;;;1.33;0.43;;;;;;;;;;4112785;28;20053;-49
2023/01/31 12:21:14;;;;;;;0.75;0.30;;;;;;;;;;4137750;28;20080;-52
2023/01/31 12:23:36;;;;;;;0.20;0.20;;;;;;;;;;4130850;28;20050;-47
2023/01/31 12:25:47;;;;;;;0.30;0.20;;;;;;;;;;4125351;28;20058;-47
2023/01/31 12:28:15;;;;;;;0.60;0.28;;;;;;;;;;4116846;28;20124;-53
2023/01/31 12:30:26;;;;;;;0.40;0.20;;;;;;;;;;4134394;28;20064;-52
2023/01/31 12:32:42;;;;;;;0.77;0.40;;;;;;;;;;4128205;28;20645;-46
2023/01/31 12:35:02;;;;;;;0.70;0.32;;;;;;;;;;4132476;28;20057;-49
2023/01/31 12:37:22;;;;;;;1.50;0.20;;;;;;;;;;4131887;28;20060;-53